sensor_id;sensor_type;location;lat;lon;timestamp;P1;durP1;ratioP1;P2;durP2;ratioP2
33840;SDS011;20142;28.494;-16.312;2024-01-30T00:00:37;36.78;;;6.30;;
33840;SDS011;20142;28.494;-16.312;2024-01-30T00:05:38;34.95;;;5.55;;
33840;SDS011;20142;28.494;-16.312;2024-01-30T00:10:40;36.35;;;6.10;;
33840;SDS011;20142;28.494;-16.312;2024-01-30T00:15:42;38.28;;;6.07;;
33840;SDS011;20142;28.494;-16.312;2024-01-30T00:20:44;39.13;;;5.85;;
33840;SDS011;20142;28.494;-16.312;2024-01-30T00:25:46;35.67;;;7.22;;
33840;SDS011;20142;28.494;-16.312;2024-01-30T00:30:47;38.85;;;6.78;;
33840;SDS011;20142;28.494;-16.312;2024-01-30T00:35:49;44.78;;;5.57;;
33840;SDS011;20142;28.494;-16.312;2024-01-30T00:40:51;44.85;;;6.20;;
33840;SDS011;20142;28.494;-16.312;2024-01-30T00:45:53;40.97;;;5.50;;
33840;SDS011;20142;28.494;-16.312;2024-01-30T00:50:55;43.10;;;6.53;;
33840;SDS011;20142;28.494;-16.312;2024-01-30T00:55:56;46.08;;;6.25;;
33840;SDS011;20142;28.494;-16.312;2024-01-30T01:00:58;53.72;;;6.43;;
33840;SDS011;20142;28.494;-16.312;2024-01-30T01:06:00;39.42;;;6.07;;
33840;SDS011;20142;28.494;-16.312;2024-01-30T01:11:02;47.13;;;6.32;;
33840;SDS011;20142;28.494;-16.312;2024-01-30T01:16:04;42.35;;;6.03;;
33840;SDS011;20142;28.494;-16.312;2024-01-30T01:21:06;50.78;;;6.80;;
33840;SDS011;20142;28.494;-16.312;2024-01-30T01:26:08;49.17;;;7.18;;
33840;SDS011;20142;28.494;-16.312;2024-01-30T01:31:10;54.58;;;7.93;;
33840;SDS011;20142;28.494;-16.312;2024-01-30T01:36:13;51.22;;;6.82;;
33840;SDS011;20142;28.494;-16.312;2024-01-30T01:41:15;42.65;;;7.13;;
33840;SDS011;20142;28.494;-16.312;2024-01-30T01:46:17;58.30;;;7.93;;
33840;SDS011;20142;28.494;-16.312;2024-01-30T01:51:19;58.92;;;8.27;;
33840;SDS011;20142;28.494;-16.312;2024-01-30T01:56:21;54.92;;;7.57;;
33840;SDS011;20142;28.494;-16.312;2024-01-30T02:01:24;59.97;;;6.32;;
33840;SDS011;20142;28.494;-16.312;2024-01-30T02:06:28;53.35;;;7.25;;
33840;SDS011;20142;28.494;-16.312;2024-01-30T02:11:30;50.13;;;7.82;;
33840;SDS011;20142;28.494;-16.312;2024-01-30T02:16:32;74.57;;;8.73;;
33840;SDS011;20142;28.494;-16.312;2024-01-30T02:21:34;56.42;;;8.52;;
33840;SDS011;20142;28.494;-16.312;2024-01-30T02:26:36;71.68;;;7.95;;
33840;SDS011;20142;28.494;-16.312;2024-01-30T02:31:37;60.83;;;8.75;;
33840;SDS011;20142;28.494;-16.312;2024-01-30T02:36:42;63.85;;;8.52;;
33840;SDS011;20142;28.494;-16.312;2024-01-30T02:41:44;61.72;;;7.82;;
33840;SDS011;20142;28.494;-16.312;2024-01-30T02:46:46;53.00;;;8.13;;
33840;SDS011;20142;28.494;-16.312;2024-01-30T02:51:48;64.85;;;8.65;;
33840;SDS011;20142;28.494;-16.312;2024-01-30T02:56:49;63.60;;;8.35;;
33840;SDS011;20142;28.494;-16.312;2024-01-30T03:01:51;56.38;;;9.00;;
33840;SDS011;20142;28.494;-16.312;2024-01-30T03:06:53;69.00;;;8.18;;
33840;SDS011;20142;28.494;-16.312;2024-01-30T03:11:55;63.92;;;9.80;;
33840;SDS011;20142;28.494;-16.312;2024-01-30T03:16:57;66.88;;;9.25;;
33840;SDS011;20142;28.494;-16.312;2024-01-30T03:21:59;78.00;;;10.40;;
33840;SDS011;20142;28.494;-16.312;2024-01-30T03:27:00;69.40;;;9.05;;
33840;SDS011;20142;28.494;-16.312;2024-01-30T03:32:02;74.88;;;9.85;;
33840;SDS011;20142;28.494;-16.312;2024-01-30T03:37:04;64.30;;;9.07;;
33840;SDS011;20142;28.494;-16.312;2024-01-30T03:42:06;90.38;;;10.98;;
33840;SDS011;20142;28.494;-16.312;2024-01-30T03:47:08;103.32;;;12.48;;
33840;SDS011;20142;28.494;-16.312;2024-01-30T03:52:10;85.95;;;11.50;;
33840;SDS011;20142;28.494;-16.312;2024-01-30T03:57:11;95.72;;;11.93;;
33840;SDS011;20142;28.494;-16.312;2024-01-30T04:02:13;112.88;;;14.07;;
33840;SDS011;20142;28.494;-16.312;2024-01-30T04:07:15;118.93;;;14.75;;
33840;SDS011;20142;28.494;-16.312;2024-01-30T04:12:16;111.93;;;13.27;;
33840;SDS011;20142;28.494;-16.312;2024-01-30T04:17:18;114.00;;;14.57;;
33840;SDS011;20142;28.494;-16.312;2024-01-30T04:22:20;128.50;;;13.75;;
33840;SDS011;20142;28.494;-16.312;2024-01-30T04:27:22;103.30;;;13.43;;
33840;SDS011;20142;28.494;-16.312;2024-01-30T04:32:23;107.88;;;14.15;;
33840;SDS011;20142;28.494;-16.312;2024-01-30T04:37:25;87.22;;;12.13;;
33840;SDS011;20142;28.494;-16.312;2024-01-30T04:42:27;99.57;;;12.85;;
33840;SDS011;20142;28.494;-16.312;2024-01-30T04:47:28;106.20;;;14.10;;
33840;SDS011;20142;28.494;-16.312;2024-01-30T04:52:30;118.18;;;13.52;;
33840;SDS011;20142;28.494;-16.312;2024-01-30T04:57:32;107.18;;;12.80;;
33840;SDS011;20142;28.494;-16.312;2024-01-30T05:02:34;116.53;;;14.25;;
33840;SDS011;20142;28.494;-16.312;2024-01-30T05:07:36;97.47;;;12.43;;
33840;SDS011;20142;28.494;-16.312;2024-01-30T05:12:42;83.97;;;12.20;;
33840;SDS011;20142;28.494;-16.312;2024-01-30T05:17:43;100.55;;;12.43;;
33840;SDS011;20142;28.494;-16.312;2024-01-30T05:22:45;83.30;;;12.43;;
33840;SDS011;20142;28.494;-16.312;2024-01-30T05:27:47;102.82;;;13.38;;
33840;SDS011;20142;28.494;-16.312;2024-01-30T05:32:48;97.35;;;12.32;;
33840;SDS011;20142;28.494;-16.312;2024-01-30T05:37:50;96.18;;;12.50;;
33840;SDS011;20142;28.494;-16.312;2024-01-30T05:42:52;94.35;;;11.82;;
33840;SDS011;20142;28.494;-16.312;2024-01-30T05:47:54;81.80;;;13.27;;
33840;SDS011;20142;28.494;-16.312;2024-01-30T05:52:55;98.85;;;13.82;;
33840;SDS011;20142;28.494;-16.312;2024-01-30T05:57:57;100.15;;;12.18;;
33840;SDS011;20142;28.494;-16.312;2024-01-30T06:02:59;96.20;;;12.45;;
33840;SDS011;20142;28.494;-16.312;2024-01-30T06:08:01;98.72;;;12.93;;
33840;SDS011;20142;28.494;-16.312;2024-01-30T06:13:03;93.20;;;11.82;;
33840;SDS011;20142;28.494;-16.312;2024-01-30T06:18:05;87.35;;;11.55;;
33840;SDS011;20142;28.494;-16.312;2024-01-30T06:23:07;90.60;;;12.15;;
33840;SDS011;20142;28.494;-16.312;2024-01-30T06:28:08;101.85;;;12.15;;
33840;SDS011;20142;28.494;-16.312;2024-01-30T06:33:14;100.43;;;11.50;;
33840;SDS011;20142;28.494;-16.312;2024-01-30T06:38:16;88.95;;;12.13;;
33840;SDS011;20142;28.494;-16.312;2024-01-30T06:43:17;94.32;;;11.52;;
33840;SDS011;20142;28.494;-16.312;2024-01-30T06:48:19;85.85;;;11.10;;
33840;SDS011;20142;28.494;-16.312;2024-01-30T06:53:21;95.57;;;12.73;;
33840;SDS011;20142;28.494;-16.312;2024-01-30T06:58:23;97.22;;;11.90;;
33840;SDS011;20142;28.494;-16.312;2024-01-30T07:03:24;113.25;;;13.07;;
33840;SDS011;20142;28.494;-16.312;2024-01-30T07:08:26;104.15;;;13.23;;
33840;SDS011;20142;28.494;-16.312;2024-01-30T07:13:28;106.57;;;14.55;;
33840;SDS011;20142;28.494;-16.312;2024-01-30T07:18:29;97.07;;;14.00;;
33840;SDS011;20142;28.494;-16.312;2024-01-30T07:23:31;107.78;;;12.38;;
33840;SDS011;20142;28.494;-16.312;2024-01-30T07:28:34;98.63;;;11.60;;
33840;SDS011;20142;28.494;-16.312;2024-01-30T07:33:36;102.20;;;12.07;;
33840;SDS011;20142;28.494;-16.312;2024-01-30T07:38:38;97.72;;;13.68;;
33840;SDS011;20142;28.494;-16.312;2024-01-30T07:43:43;132.85;;;14.63;;
33840;SDS011;20142;28.494;-16.312;2024-01-30T07:48:44;97.85;;;12.90;;
33840;SDS011;20142;28.494;-16.312;2024-01-30T07:53:46;111.85;;;16.90;;
33840;SDS011;20142;28.494;-16.312;2024-01-30T07:58:48;113.45;;;14.68;;
33840;SDS011;20142;28.494;-16.312;2024-01-30T08:03:49;112.20;;;13.45;;
33840;SDS011;20142;28.494;-16.312;2024-01-30T08:08:51;119.50;;;13.07;;
33840;SDS011;20142;28.494;-16.312;2024-01-30T08:13:54;89.63;;;11.90;;
33840;SDS011;20142;28.494;-16.312;2024-01-30T08:18:56;92.70;;;12.23;;
33840;SDS011;20142;28.494;-16.312;2024-01-30T08:23:58;96.38;;;12.35;;
33840;SDS011;20142;28.494;-16.312;2024-01-30T08:29:05;115.90;;;13.02;;
33840;SDS011;20142;28.494;-16.312;2024-01-30T08:34:06;95.15;;;13.13;;
33840;SDS011;20142;28.494;-16.312;2024-01-30T08:39:08;98.68;;;13.18;;
33840;SDS011;20142;28.494;-16.312;2024-01-30T08:44:11;92.18;;;14.23;;
33840;SDS011;20142;28.494;-16.312;2024-01-30T08:49:13;85.45;;;13.88;;
33840;SDS011;20142;28.494;-16.312;2024-01-30T08:54:14;99.97;;;14.40;;
33840;SDS011;20142;28.494;-16.312;2024-01-30T08:59:16;89.15;;;11.63;;
33840;SDS011;20142;28.494;-16.312;2024-01-30T09:04:18;86.22;;;12.93;;
33840;SDS011;20142;28.494;-16.312;2024-01-30T09:09:19;103.32;;;13.90;;
33840;SDS011;20142;28.494;-16.312;2024-01-30T09:14:21;85.28;;;12.93;;
33840;SDS011;20142;28.494;-16.312;2024-01-30T09:19:23;98.55;;;12.45;;
33840;SDS011;20142;28.494;-16.312;2024-01-30T09:24:25;96.28;;;12.32;;
33840;SDS011;20142;28.494;-16.312;2024-01-30T09:29:27;81.75;;;12.20;;
33840;SDS011;20142;28.494;-16.312;2024-01-30T09:34:29;98.00;;;14.05;;
33840;SDS011;20142;28.494;-16.312;2024-01-30T09:39:31;99.10;;;11.85;;
33840;SDS011;20142;28.494;-16.312;2024-01-30T09:44:33;102.03;;;13.32;;
33840;SDS011;20142;28.494;-16.312;2024-01-30T09:49:37;87.18;;;10.80;;
33840;SDS011;20142;28.494;-16.312;2024-01-30T09:54:40;85.28;;;12.50;;
33840;SDS011;20142;28.494;-16.312;2024-01-30T09:59:42;78.30;;;11.10;;
33840;SDS011;20142;28.494;-16.312;2024-01-30T10:04:45;92.47;;;12.60;;
33840;SDS011;20142;28.494;-16.312;2024-01-30T10:09:53;90.32;;;12.10;;
33840;SDS011;20142;28.494;-16.312;2024-01-30T10:14:57;84.85;;;12.27;;
33840;SDS011;20142;28.494;-16.312;2024-01-30T10:19:59;104.43;;;12.85;;
33840;SDS011;20142;28.494;-16.312;2024-01-30T10:25:01;87.03;;;10.93;;
33840;SDS011;20142;28.494;-16.312;2024-01-30T10:30:03;87.95;;;11.18;;
33840;SDS011;20142;28.494;-16.312;2024-01-30T10:35:06;72.88;;;10.13;;
33840;SDS011;20142;28.494;-16.312;2024-01-30T10:40:07;71.82;;;9.45;;
33840;SDS011;20142;28.494;-16.312;2024-01-30T10:45:13;61.65;;;7.72;;
33840;SDS011;20142;28.494;-16.312;2024-01-30T10:50:19;69.20;;;8.95;;
33840;SDS011;20142;28.494;-16.312;2024-01-30T10:55:22;53.50;;;7.50;;
33840;SDS011;20142;28.494;-16.312;2024-01-30T11:00:25;68.10;;;8.70;;
33840;SDS011;20142;28.494;-16.312;2024-01-30T11:05:27;55.00;;;8.48;;
33840;SDS011;20142;28.494;-16.312;2024-01-30T11:10:30;40.50;;;7.25;;
33840;SDS011;20142;28.494;-16.312;2024-01-30T11:15:32;47.72;;;7.35;;
33840;SDS011;20142;28.494;-16.312;2024-01-30T11:20:35;51.95;;;7.63;;
33840;SDS011;20142;28.494;-16.312;2024-01-30T11:25:37;45.30;;;6.57;;
33840;SDS011;20142;28.494;-16.312;2024-01-30T11:30:39;58.03;;;8.35;;
33840;SDS011;20142;28.494;-16.312;2024-01-30T11:35:41;45.97;;;7.10;;
33840;SDS011;20142;28.494;-16.312;2024-01-30T11:40:44;37.63;;;5.40;;
33840;SDS011;20142;28.494;-16.312;2024-01-30T11:45:46;41.22;;;5.32;;
33840;SDS011;20142;28.494;-16.312;2024-01-30T11:50:48;29.88;;;4.85;;
33840;SDS011;20142;28.494;-16.312;2024-01-30T11:55:51;36.30;;;4.47;;
33840;SDS011;20142;28.494;-16.312;2024-01-30T12:00:54;24.65;;;3.67;;
33840;SDS011;20142;28.494;-16.312;2024-01-30T12:05:57;23.70;;;4.10;;
33840;SDS011;20142;28.494;-16.312;2024-01-30T12:10:59;23.77;;;3.45;;
33840;SDS011;20142;28.494;-16.312;2024-01-30T12:16:06;18.70;;;3.33;;
33840;SDS011;20142;28.494;-16.312;2024-01-30T12:21:07;28.45;;;4.60;;
33840;SDS011;20142;28.494;-16.312;2024-01-30T12:26:09;23.35;;;4.05;;
33840;SDS011;20142;28.494;-16.312;2024-01-30T12:31:11;30.05;;;4.78;;
33840;SDS011;20142;28.494;-16.312;2024-01-30T12:36:13;29.77;;;4.45;;
33840;SDS011;20142;28.494;-16.312;2024-01-30T12:41:15;24.60;;;3.92;;
33840;SDS011;20142;28.494;-16.312;2024-01-30T12:46:17;41.40;;;4.95;;
33840;SDS011;20142;28.494;-16.312;2024-01-30T12:51:18;33.78;;;5.55;;
33840;SDS011;20142;28.494;-16.312;2024-01-30T12:56:20;44.28;;;5.20;;
33840;SDS011;20142;28.494;-16.312;2024-01-30T13:01:22;32.42;;;4.93;;
33840;SDS011;20142;28.494;-16.312;2024-01-30T13:06:24;30.52;;;4.28;;
33840;SDS011;20142;28.494;-16.312;2024-01-30T13:11:25;39.63;;;6.00;;
33840;SDS011;20142;28.494;-16.312;2024-01-30T13:16:27;38.50;;;5.43;;
33840;SDS011;20142;28.494;-16.312;2024-01-30T13:21:29;47.33;;;5.85;;
33840;SDS011;20142;28.494;-16.312;2024-01-30T13:26:34;49.35;;;6.25;;
33840;SDS011;20142;28.494;-16.312;2024-01-30T13:31:36;32.85;;;6.05;;
33840;SDS011;20142;28.494;-16.312;2024-01-30T13:36:38;46.55;;;7.90;;
33840;SDS011;20142;28.494;-16.312;2024-01-30T13:41:41;57.67;;;7.50;;
33840;SDS011;20142;28.494;-16.312;2024-01-30T13:46:43;60.70;;;7.28;;
33840;SDS011;20142;28.494;-16.312;2024-01-30T13:51:45;71.00;;;8.15;;
33840;SDS011;20142;28.494;-16.312;2024-01-30T13:56:46;61.40;;;9.18;;
33840;SDS011;20142;28.494;-16.312;2024-01-30T14:01:48;59.35;;;8.65;;
33840;SDS011;20142;28.494;-16.312;2024-01-30T14:06:50;60.92;;;8.93;;
33840;SDS011;20142;28.494;-16.312;2024-01-30T14:11:51;71.40;;;9.02;;
33840;SDS011;20142;28.494;-16.312;2024-01-30T14:16:53;59.58;;;9.52;;
33840;SDS011;20142;28.494;-16.312;2024-01-30T14:21:55;72.80;;;10.43;;
33840;SDS011;20142;28.494;-16.312;2024-01-30T14:26:57;67.47;;;9.35;;
33840;SDS011;20142;28.494;-16.312;2024-01-30T14:32:00;70.43;;;9.95;;
33840;SDS011;20142;28.494;-16.312;2024-01-30T14:37:02;70.78;;;11.57;;
33840;SDS011;20142;28.494;-16.312;2024-01-30T14:42:04;64.63;;;10.30;;
33840;SDS011;20142;28.494;-16.312;2024-01-30T14:47:06;69.70;;;9.60;;
33840;SDS011;20142;28.494;-16.312;2024-01-30T14:52:08;63.38;;;9.45;;
33840;SDS011;20142;28.494;-16.312;2024-01-30T14:57:11;63.95;;;9.73;;
33840;SDS011;20142;28.494;-16.312;2024-01-30T15:02:14;71.43;;;8.82;;
33840;SDS011;20142;28.494;-16.312;2024-01-30T15:07:16;59.28;;;8.98;;
33840;SDS011;20142;28.494;-16.312;2024-01-30T15:12:18;57.75;;;10.02;;
33840;SDS011;20142;28.494;-16.312;2024-01-30T15:17:20;56.80;;;9.15;;
33840;SDS011;20142;28.494;-16.312;2024-01-30T15:22:24;65.45;;;9.32;;
33840;SDS011;20142;28.494;-16.312;2024-01-30T15:27:26;51.03;;;9.88;;
33840;SDS011;20142;28.494;-16.312;2024-01-30T15:32:28;64.95;;;10.32;;
33840;SDS011;20142;28.494;-16.312;2024-01-30T15:37:29;65.30;;;9.23;;
33840;SDS011;20142;28.494;-16.312;2024-01-30T15:42:34;51.45;;;9.30;;
33840;SDS011;20142;28.494;-16.312;2024-01-30T15:47:36;55.33;;;9.68;;
33840;SDS011;20142;28.494;-16.312;2024-01-30T15:52:39;47.13;;;9.88;;
33840;SDS011;20142;28.494;-16.312;2024-01-30T15:57:40;53.03;;;9.50;;
33840;SDS011;20142;28.494;-16.312;2024-01-30T16:02:42;54.50;;;9.98;;
33840;SDS011;20142;28.494;-16.312;2024-01-30T16:07:44;51.33;;;9.70;;
33840;SDS011;20142;28.494;-16.312;2024-01-30T16:12:46;57.08;;;9.45;;
33840;SDS011;20142;28.494;-16.312;2024-01-30T16:17:47;57.13;;;9.75;;
33840;SDS011;20142;28.494;-16.312;2024-01-30T16:22:49;51.72;;;9.55;;
33840;SDS011;20142;28.494;-16.312;2024-01-30T16:27:53;53.58;;;9.85;;
33840;SDS011;20142;28.494;-16.312;2024-01-30T16:32:55;57.97;;;9.80;;
33840;SDS011;20142;28.494;-16.312;2024-01-30T16:37:57;48.75;;;9.52;;
33840;SDS011;20142;28.494;-16.312;2024-01-30T16:42:58;50.72;;;9.32;;
33840;SDS011;20142;28.494;-16.312;2024-01-30T16:48:00;56.63;;;8.93;;
33840;SDS011;20142;28.494;-16.312;2024-01-30T16:53:02;61.95;;;10.65;;
33840;SDS011;20142;28.494;-16.312;2024-01-30T16:58:03;62.28;;;11.20;;
33840;SDS011;20142;28.494;-16.312;2024-01-30T17:03:05;59.08;;;10.05;;
33840;SDS011;20142;28.494;-16.312;2024-01-30T17:08:07;67.18;;;13.27;;
33840;SDS011;20142;28.494;-16.312;2024-01-30T17:13:09;69.03;;;12.52;;
33840;SDS011;20142;28.494;-16.312;2024-01-30T17:18:11;67.03;;;13.35;;
33840;SDS011;20142;28.494;-16.312;2024-01-30T17:23:13;61.45;;;11.57;;
33840;SDS011;20142;28.494;-16.312;2024-01-30T17:28:14;77.55;;;14.13;;
33840;SDS011;20142;28.494;-16.312;2024-01-30T17:33:17;74.18;;;13.48;;
33840;SDS011;20142;28.494;-16.312;2024-01-30T17:38:19;82.20;;;13.73;;
33840;SDS011;20142;28.494;-16.312;2024-01-30T17:43:21;74.25;;;12.48;;
33840;SDS011;20142;28.494;-16.312;2024-01-30T17:48:22;81.10;;;13.30;;
33840;SDS011;20142;28.494;-16.312;2024-01-30T17:53:24;58.75;;;8.82;;
33840;SDS011;20142;28.494;-16.312;2024-01-30T17:58:26;60.63;;;10.13;;
33840;SDS011;20142;28.494;-16.312;2024-01-30T18:03:27;62.95;;;10.27;;
33840;SDS011;20142;28.494;-16.312;2024-01-30T18:08:31;52.80;;;9.35;;
33840;SDS011;20142;28.494;-16.312;2024-01-30T18:13:33;70.30;;;9.50;;
33840;SDS011;20142;28.494;-16.312;2024-01-30T18:18:35;74.82;;;10.73;;
33840;SDS011;20142;28.494;-16.312;2024-01-30T18:23:37;74.70;;;12.07;;
33840;SDS011;20142;28.494;-16.312;2024-01-30T18:28:38;68.72;;;9.45;;
33840;SDS011;20142;28.494;-16.312;2024-01-30T18:33:40;79.75;;;10.80;;
33840;SDS011;20142;28.494;-16.312;2024-01-30T18:38:42;69.45;;;9.68;;
33840;SDS011;20142;28.494;-16.312;2024-01-30T18:43:44;61.28;;;9.13;;
33840;SDS011;20142;28.494;-16.312;2024-01-30T18:48:45;83.75;;;11.07;;
33840;SDS011;20142;28.494;-16.312;2024-01-30T18:53:47;73.13;;;10.02;;
33840;SDS011;20142;28.494;-16.312;2024-01-30T18:58:49;81.45;;;10.80;;
33840;SDS011;20142;28.494;-16.312;2024-01-30T19:03:52;88.93;;;11.73;;
33840;SDS011;20142;28.494;-16.312;2024-01-30T19:08:54;90.20;;;12.18;;
33840;SDS011;20142;28.494;-16.312;2024-01-30T19:13:56;71.32;;;11.90;;
33840;SDS011;20142;28.494;-16.312;2024-01-30T19:18:58;88.85;;;12.13;;
33840;SDS011;20142;28.494;-16.312;2024-01-30T19:23:59;93.90;;;13.18;;
33840;SDS011;20142;28.494;-16.312;2024-01-30T19:29:01;74.95;;;12.15;;
33840;SDS011;20142;28.494;-16.312;2024-01-30T19:34:03;74.43;;;12.65;;
33840;SDS011;20142;28.494;-16.312;2024-01-30T19:39:05;79.88;;;12.70;;
33840;SDS011;20142;28.494;-16.312;2024-01-30T19:44:12;84.70;;;12.25;;
33840;SDS011;20142;28.494;-16.312;2024-01-30T19:49:14;84.60;;;13.07;;
33840;SDS011;20142;28.494;-16.312;2024-01-30T19:54:19;94.20;;;13.15;;
33840;SDS011;20142;28.494;-16.312;2024-01-30T19:59:22;93.47;;;12.65;;
33840;SDS011;20142;28.494;-16.312;2024-01-30T20:04:24;84.03;;;11.55;;
33840;SDS011;20142;28.494;-16.312;2024-01-30T20:09:26;68.00;;;12.05;;
33840;SDS011;20142;28.494;-16.312;2024-01-30T20:14:29;90.22;;;15.15;;
33840;SDS011;20142;28.494;-16.312;2024-01-30T20:19:30;77.38;;;12.90;;
33840;SDS011;20142;28.494;-16.312;2024-01-30T20:24:32;78.10;;;11.25;;
33840;SDS011;20142;28.494;-16.312;2024-01-30T20:29:34;82.85;;;12.80;;
33840;SDS011;20142;28.494;-16.312;2024-01-30T20:34:37;77.82;;;12.65;;
33840;SDS011;20142;28.494;-16.312;2024-01-30T20:39:38;98.47;;;12.60;;
33840;SDS011;20142;28.494;-16.312;2024-01-30T20:44:41;92.55;;;11.82;;
33840;SDS011;20142;28.494;-16.312;2024-01-30T20:49:43;89.10;;;13.35;;
33840;SDS011;20142;28.494;-16.312;2024-01-30T20:54:45;95.15;;;12.35;;
33840;SDS011;20142;28.494;-16.312;2024-01-30T20:59:46;101.43;;;13.55;;
33840;SDS011;20142;28.494;-16.312;2024-01-30T21:04:48;84.93;;;13.30;;
33840;SDS011;20142;28.494;-16.312;2024-01-30T21:09:50;81.60;;;12.65;;
33840;SDS011;20142;28.494;-16.312;2024-01-30T21:14:52;82.25;;;12.52;;
33840;SDS011;20142;28.494;-16.312;2024-01-30T21:19:53;93.20;;;11.68;;
33840;SDS011;20142;28.494;-16.312;2024-01-30T21:24:55;72.15;;;12.30;;
33840;SDS011;20142;28.494;-16.312;2024-01-30T21:29:57;82.18;;;11.30;;
33840;SDS011;20142;28.494;-16.312;2024-01-30T21:34:58;93.50;;;11.85;;
33840;SDS011;20142;28.494;-16.312;2024-01-30T21:40:00;101.30;;;13.27;;
33840;SDS011;20142;28.494;-16.312;2024-01-30T21:45:04;89.50;;;12.25;;
33840;SDS011;20142;28.494;-16.312;2024-01-30T21:50:07;76.63;;;11.60;;
33840;SDS011;20142;28.494;-16.312;2024-01-30T21:55:09;83.13;;;13.00;;
33840;SDS011;20142;28.494;-16.312;2024-01-30T22:00:11;83.60;;;12.10;;
33840;SDS011;20142;28.494;-16.312;2024-01-30T22:05:13;66.53;;;11.10;;
33840;SDS011;20142;28.494;-16.312;2024-01-30T22:10:15;76.72;;;11.43;;
33840;SDS011;20142;28.494;-16.312;2024-01-30T22:15:17;91.57;;;11.95;;
33840;SDS011;20142;28.494;-16.312;2024-01-30T22:20:19;69.93;;;10.80;;
33840;SDS011;20142;28.494;-16.312;2024-01-30T22:25:20;75.57;;;12.00;;
33840;SDS011;20142;28.494;-16.312;2024-01-30T22:30:22;80.13;;;12.00;;
33840;SDS011;20142;28.494;-16.312;2024-01-30T22:35:24;75.65;;;11.23;;
33840;SDS011;20142;28.494;-16.312;2024-01-30T22:40:25;80.53;;;11.48;;
33840;SDS011;20142;28.494;-16.312;2024-01-30T22:45:27;90.88;;;11.55;;
33840;SDS011;20142;28.494;-16.312;2024-01-30T22:50:29;87.03;;;12.15;;
33840;SDS011;20142;28.494;-16.312;2024-01-30T22:55:30;87.97;;;11.98;;
33840;SDS011;20142;28.494;-16.312;2024-01-30T23:00:32;98.05;;;13.02;;
33840;SDS011;20142;28.494;-16.312;2024-01-30T23:05:34;89.38;;;12.75;;
33840;SDS011;20142;28.494;-16.312;2024-01-30T23:10:36;94.78;;;13.15;;
33840;SDS011;20142;28.494;-16.312;2024-01-30T23:15:37;70.35;;;11.38;;
33840;SDS011;20142;28.494;-16.312;2024-01-30T23:20:39;81.50;;;12.25;;
33840;SDS011;20142;28.494;-16.312;2024-01-30T23:25:41;71.05;;;10.77;;
33840;SDS011;20142;28.494;-16.312;2024-01-30T23:30:42;88.80;;;12.38;;
33840;SDS011;20142;28.494;-16.312;2024-01-30T23:35:44;70.22;;;11.65;;
33840;SDS011;20142;28.494;-16.312;2024-01-30T23:40:46;72.55;;;11.35;;
33840;SDS011;20142;28.494;-16.312;2024-01-30T23:45:49;85.03;;;11.05;;
33840;SDS011;20142;28.494;-16.312;2024-01-30T23:50:50;93.88;;;15.18;;
33840;SDS011;20142;28.494;-16.312;2024-01-30T23:55:52;65.22;;;10.82;;
